sensor_id;sensor_type;location;lat;lon;timestamp;pressure;altitude;pressure_sealevel;temperature;humidity
51239;BME280;38154;47.548;18.828;2022-08-18T00:02:54;98290.25;;;23.32;47.74
51239;BME280;38154;47.548;18.828;2022-08-18T00:05:23;98291.13;;;23.78;45.75
51239;BME280;38154;47.548;18.828;2022-08-18T00:07:49;98297.75;;;24.15;44.58
51239;BME280;38154;47.548;18.828;2022-08-18T00:10:14;98283.75;;;24.40;43.70
51239;BME280;38154;47.548;18.828;2022-08-18T00:12:41;98283.66;;;24.56;43.15
51239;BME280;38154;47.548;18.828;2022-08-18T00:15:10;98280.97;;;24.71;42.79
51239;BME280;38154;47.548;18.828;2022-08-18T00:17:37;98282.00;;;24.83;42.40
51239;BME280;38154;47.548;18.828;2022-08-18T00:20:04;98276.13;;;24.90;42.17
51239;BME280;38154;47.548;18.828;2022-08-18T00:22:31;98270.69;;;24.92;42.07
51239;BME280;38154;47.548;18.828;2022-08-18T00:24:57;98285.84;;;24.91;42.13
51239;BME280;38154;47.548;18.828;2022-08-18T00:27:26;98280.06;;;24.85;42.10
51239;BME280;38154;47.548;18.828;2022-08-18T00:29:54;98275.09;;;24.93;42.07
51239;BME280;38154;47.548;18.828;2022-08-18T00:32:41;98272.78;;;25.01;42.32
51239;BME280;38154;47.548;18.828;2022-08-18T00:37:39;98271.16;;;24.98;44.02
51239;BME280;38154;47.548;18.828;2022-08-18T00:40:06;98263.78;;;24.89;44.25
51239;BME280;38154;47.548;18.828;2022-08-18T00:42:41;98270.59;;;24.93;44.38
51239;BME280;38154;47.548;18.828;2022-08-18T00:45:20;98272.22;;;24.96;44.68
51239;BME280;38154;47.548;18.828;2022-08-18T00:47:47;98269.84;;;24.91;45.42
51239;BME280;38154;47.548;18.828;2022-08-18T00:50:47;98272.97;;;24.98;46.11
51239;BME280;38154;47.548;18.828;2022-08-18T00:53:20;98275.06;;;25.07;46.43
51239;BME280;38154;47.548;18.828;2022-08-18T00:55:49;98273.97;;;25.10;47.13
51239;BME280;38154;47.548;18.828;2022-08-18T00:58:22;98280.06;;;25.12;48.25
51239;BME280;38154;47.548;18.828;2022-08-18T01:00:50;98274.72;;;25.12;48.16
51239;BME280;38154;47.548;18.828;2022-08-18T01:03:17;98270.25;;;25.12;48.07
51239;BME280;38154;47.548;18.828;2022-08-18T01:05:51;98274.06;;;25.08;48.56
51239;BME280;38154;47.548;18.828;2022-08-18T01:08:19;98271.84;;;25.02;49.51
51239;BME280;38154;47.548;18.828;2022-08-18T01:10:45;98272.78;;;25.01;50.20
51239;BME280;38154;47.548;18.828;2022-08-18T01:13:11;98280.63;;;24.90;51.50
51239;BME280;38154;47.548;18.828;2022-08-18T01:15:37;98282.34;;;24.91;51.69
51239;BME280;38154;47.548;18.828;2022-08-18T01:18:06;98289.72;;;24.73;50.78
51239;BME280;38154;47.548;18.828;2022-08-18T01:21:43;98292.59;;;24.26;50.53
51239;BME280;38154;47.548;18.828;2022-08-18T01:24:03;98296.44;;;23.78;51.53
51239;BME280;38154;47.548;18.828;2022-08-18T01:26:29;98298.28;;;23.47;53.36
51239;BME280;38154;47.548;18.828;2022-08-18T01:29:03;98302.37;;;23.22;54.14
51239;BME280;38154;47.548;18.828;2022-08-18T01:31:43;98307.22;;;23.00;55.07
51239;BME280;38154;47.548;18.828;2022-08-18T01:34:12;98305.25;;;22.71;55.69
51239;BME280;38154;47.548;18.828;2022-08-18T01:36:39;98305.41;;;22.52;56.52
51239;BME280;38154;47.548;18.828;2022-08-18T01:39:09;98302.03;;;22.33;56.77
51239;BME280;38154;47.548;18.828;2022-08-18T01:41:35;98304.88;;;22.12;57.55
51239;BME280;38154;47.548;18.828;2022-08-18T01:44:01;98298.75;;;21.94;58.58
51239;BME280;38154;47.548;18.828;2022-08-18T01:46:30;98299.75;;;21.92;59.08
51239;BME280;38154;47.548;18.828;2022-08-18T01:48:59;98298.66;;;21.96;59.58
51239;BME280;38154;47.548;18.828;2022-08-18T01:51:28;98307.53;;;21.79;60.87
51239;BME280;38154;47.548;18.828;2022-08-18T01:53:55;98306.53;;;21.64;61.75
51239;BME280;38154;47.548;18.828;2022-08-18T01:56:24;98315.16;;;21.50;62.26
51239;BME280;38154;47.548;18.828;2022-08-18T01:58:53;98314.97;;;21.36;63.32
51239;BME280;38154;47.548;18.828;2022-08-18T02:01:21;98314.72;;;21.23;63.78
51239;BME280;38154;47.548;18.828;2022-08-18T02:03:51;98311.03;;;21.08;63.80
51239;BME280;38154;47.548;18.828;2022-08-18T02:06:19;98316.09;;;20.95;64.31
51239;BME280;38154;47.548;18.828;2022-08-18T02:08:46;98305.84;;;20.87;64.83
51239;BME280;38154;47.548;18.828;2022-08-18T02:11:12;98306.75;;;21.05;64.93
51239;BME280;38154;47.548;18.828;2022-08-18T02:13:38;98299.72;;;21.04;64.86
51239;BME280;38154;47.548;18.828;2022-08-18T02:16:05;98295.38;;;21.21;65.24
51239;BME280;38154;47.548;18.828;2022-08-18T02:18:32;98296.00;;;21.08;65.36
51239;BME280;38154;47.548;18.828;2022-08-18T02:21:10;98296.78;;;21.10;65.60
51239;BME280;38154;47.548;18.828;2022-08-18T02:23:37;98309.41;;;21.05;66.26
51239;BME280;38154;47.548;18.828;2022-08-18T02:26:10;98314.22;;;20.97;66.83
51239;BME280;38154;47.548;18.828;2022-08-18T02:28:36;98314.56;;;20.89;66.92
51239;BME280;38154;47.548;18.828;2022-08-18T02:31:07;98316.03;;;20.78;67.28
51239;BME280;38154;47.548;18.828;2022-08-18T02:33:33;98308.75;;;20.64;68.27
51239;BME280;38154;47.548;18.828;2022-08-18T02:36:00;98323.19;;;20.56;68.84
51239;BME280;38154;47.548;18.828;2022-08-18T02:38:25;98316.50;;;20.48;70.11
51239;BME280;38154;47.548;18.828;2022-08-18T02:40:59;98323.72;;;20.44;70.44
51239;BME280;38154;47.548;18.828;2022-08-18T02:43:26;98320.75;;;20.33;70.56
51239;BME280;38154;47.548;18.828;2022-08-18T02:45:53;98321.06;;;20.25;71.57
51239;BME280;38154;47.548;18.828;2022-08-18T02:48:19;98324.63;;;20.24;72.39
51239;BME280;38154;47.548;18.828;2022-08-18T02:51:06;98323.13;;;20.18;72.87
51239;BME280;38154;47.548;18.828;2022-08-18T02:53:34;98327.72;;;20.15;72.24
51239;BME280;38154;47.548;18.828;2022-08-18T02:58:52;98326.94;;;20.32;71.54
51239;BME280;38154;47.548;18.828;2022-08-18T03:01:28;98328.88;;;20.28;72.50
51239;BME280;38154;47.548;18.828;2022-08-18T03:03:55;98336.03;;;20.26;73.59
51239;BME280;38154;47.548;18.828;2022-08-18T03:06:23;98339.81;;;20.20;72.45
51239;BME280;38154;47.548;18.828;2022-08-18T03:08:49;98337.41;;;20.35;73.72
51239;BME280;38154;47.548;18.828;2022-08-18T03:11:23;98334.13;;;20.30;74.14
51239;BME280;38154;47.548;18.828;2022-08-18T03:13:50;98338.53;;;20.29;73.69
51239;BME280;38154;47.548;18.828;2022-08-18T03:16:16;98329.47;;;20.54;74.37
51239;BME280;38154;47.548;18.828;2022-08-18T03:18:43;98340.31;;;20.68;73.35
51239;BME280;38154;47.548;18.828;2022-08-18T03:21:12;98341.16;;;20.88;72.03
51239;BME280;38154;47.548;18.828;2022-08-18T03:23:39;98348.22;;;21.06;71.24
51239;BME280;38154;47.548;18.828;2022-08-18T03:26:07;98345.97;;;20.99;70.91
51239;BME280;38154;47.548;18.828;2022-08-18T03:28:37;98338.28;;;20.92;70.93
51239;BME280;38154;47.548;18.828;2022-08-18T03:31:06;98341.22;;;20.86;71.00
51239;BME280;38154;47.548;18.828;2022-08-18T03:33:33;98337.72;;;20.86;71.07
51239;BME280;38154;47.548;18.828;2022-08-18T03:36:07;98334.09;;;20.88;71.95
51239;BME280;38154;47.548;18.828;2022-08-18T03:38:34;98324.41;;;20.87;72.95
51239;BME280;38154;47.548;18.828;2022-08-18T03:41:00;98322.53;;;21.26;76.53
51239;BME280;38154;47.548;18.828;2022-08-18T03:43:26;98317.84;;;21.31;73.56
51239;BME280;38154;47.548;18.828;2022-08-18T03:45:53;98320.97;;;21.39;73.09
51239;BME280;38154;47.548;18.828;2022-08-18T03:48:20;98320.38;;;21.52;75.40
51239;BME280;38154;47.548;18.828;2022-08-18T03:50:46;98330.16;;;21.86;74.56
51239;BME280;38154;47.548;18.828;2022-08-18T03:53:13;98321.97;;;22.24;73.99
51239;BME280;38154;47.548;18.828;2022-08-18T03:55:40;98312.88;;;22.62;72.07
51239;BME280;38154;47.548;18.828;2022-08-18T03:58:05;98311.59;;;22.85;70.93
51239;BME280;38154;47.548;18.828;2022-08-18T04:00:32;98323.25;;;23.14;69.13
51239;BME280;38154;47.548;18.828;2022-08-18T04:03:01;98316.94;;;23.31;68.24
51239;BME280;38154;47.548;18.828;2022-08-18T04:05:27;98326.81;;;23.45;67.66
51239;BME280;38154;47.548;18.828;2022-08-18T04:07:54;98310.53;;;23.49;67.06
51239;BME280;38154;47.548;18.828;2022-08-18T04:10:23;98316.34;;;23.56;66.77
51239;BME280;38154;47.548;18.828;2022-08-18T04:12:49;98324.06;;;23.61;66.73
51239;BME280;38154;47.548;18.828;2022-08-18T04:15:15;98330.53;;;23.57;66.75
51239;BME280;38154;47.548;18.828;2022-08-18T04:17:41;98331.44;;;23.71;65.79
51239;BME280;38154;47.548;18.828;2022-08-18T04:20:07;98327.47;;;23.79;65.30
51239;BME280;38154;47.548;18.828;2022-08-18T04:22:35;98327.47;;;23.79;64.81
51239;BME280;38154;47.548;18.828;2022-08-18T04:25:01;98324.87;;;23.93;64.08
51239;BME280;38154;47.548;18.828;2022-08-18T04:27:27;98326.78;;;24.05;63.33
51239;BME280;38154;47.548;18.828;2022-08-18T04:29:53;98322.09;;;24.09;63.13
51239;BME280;38154;47.548;18.828;2022-08-18T04:32:22;98319.75;;;24.19;62.41
51239;BME280;38154;47.548;18.828;2022-08-18T04:34:48;98322.31;;;24.20;61.72
51239;BME280;38154;47.548;18.828;2022-08-18T04:37:15;98314.78;;;24.27;61.54
51239;BME280;38154;47.548;18.828;2022-08-18T04:39:42;98308.41;;;24.44;60.47
51239;BME280;38154;47.548;18.828;2022-08-18T04:42:08;98316.41;;;24.58;59.61
51239;BME280;38154;47.548;18.828;2022-08-18T04:44:35;98322.31;;;24.63;59.61
51239;BME280;38154;47.548;18.828;2022-08-18T04:47:03;98321.81;;;24.71;59.38
51239;BME280;38154;47.548;18.828;2022-08-18T04:49:29;98316.00;;;24.79;59.17
51239;BME280;38154;47.548;18.828;2022-08-18T04:51:57;98320.91;;;24.85;58.82
51239;BME280;38154;47.548;18.828;2022-08-18T04:54:42;98330.34;;;24.91;58.65
51239;BME280;38154;47.548;18.828;2022-08-18T04:57:13;98329.00;;;24.98;58.55
51239;BME280;38154;47.548;18.828;2022-08-18T04:59:41;98321.44;;;25.05;58.28
51239;BME280;38154;47.548;18.828;2022-08-18T05:02:08;98322.00;;;25.10;58.26
51239;BME280;38154;47.548;18.828;2022-08-18T05:04:36;98322.84;;;25.10;58.32
51239;BME280;38154;47.548;18.828;2022-08-18T05:07:06;98325.31;;;25.13;58.06
51239;BME280;38154;47.548;18.828;2022-08-18T05:09:33;98310.84;;;25.17;57.82
51239;BME280;38154;47.548;18.828;2022-08-18T05:12:04;98303.19;;;25.26;57.53
51239;BME280;38154;47.548;18.828;2022-08-18T05:14:32;98320.53;;;25.33;57.09
51239;BME280;38154;47.548;18.828;2022-08-18T05:16:58;98317.75;;;25.34;57.04
51239;BME280;38154;47.548;18.828;2022-08-18T05:19:26;98318.28;;;25.40;56.77
51239;BME280;38154;47.548;18.828;2022-08-18T05:21:53;98319.28;;;25.51;56.60
51239;BME280;38154;47.548;18.828;2022-08-18T05:24:20;98328.91;;;25.54;56.66
51239;BME280;38154;47.548;18.828;2022-08-18T05:26:47;98332.00;;;25.61;56.61
51239;BME280;38154;47.548;18.828;2022-08-18T05:29:14;98334.25;;;25.67;56.51
51239;BME280;38154;47.548;18.828;2022-08-18T05:31:41;98332.56;;;25.66;56.71
51239;BME280;38154;47.548;18.828;2022-08-18T05:34:06;98326.38;;;25.78;55.88
51239;BME280;38154;47.548;18.828;2022-08-18T05:41:45;98336.22;;;25.90;55.42
51239;BME280;38154;47.548;18.828;2022-08-18T05:44:15;98326.00;;;25.97;55.05
51239;BME280;38154;47.548;18.828;2022-08-18T05:46:49;98336.16;;;26.05;54.53
51239;BME280;38154;47.548;18.828;2022-08-18T05:49:18;98330.94;;;26.16;54.43
51239;BME280;38154;47.548;18.828;2022-08-18T05:51:50;98319.91;;;26.21;53.66
51239;BME280;38154;47.548;18.828;2022-08-18T05:54:18;98320.88;;;26.20;54.18
51239;BME280;38154;47.548;18.828;2022-08-18T05:57:11;98328.25;;;26.29;53.34
51239;BME280;38154;47.548;18.828;2022-08-18T05:59:40;98340.19;;;26.49;53.31
51239;BME280;38154;47.548;18.828;2022-08-18T06:02:13;98338.06;;;26.67;52.80
51239;BME280;38154;47.548;18.828;2022-08-18T06:04:50;98332.84;;;26.90;52.14
51239;BME280;38154;47.548;18.828;2022-08-18T06:10:04;98337.84;;;27.31;50.89
51239;BME280;38154;47.548;18.828;2022-08-18T06:12:38;98352.19;;;27.90;49.81
51239;BME280;38154;47.548;18.828;2022-08-18T06:23:34;98342.56;;;30.30;42.74
51239;BME280;38154;47.548;18.828;2022-08-18T06:27:09;98356.63;;;31.85;39.04
51239;BME280;38154;47.548;18.828;2022-08-18T06:39:51;98352.50;;;34.73;33.28
51239;BME280;38154;47.548;18.828;2022-08-18T06:42:20;98356.41;;;34.79;33.04
51239;BME280;38154;47.548;18.828;2022-08-18T06:44:59;98354.75;;;35.28;32.08
51239;BME280;38154;47.548;18.828;2022-08-18T06:47:52;98372.38;;;35.41;31.79
51239;BME280;38154;47.548;18.828;2022-08-18T06:50:33;98360.56;;;34.65;33.26
51239;BME280;38154;47.548;18.828;2022-08-18T06:53:05;98360.72;;;35.57;31.71
51239;BME280;38154;47.548;18.828;2022-08-18T06:58:26;98341.25;;;35.78;31.08
51239;BME280;38154;47.548;18.828;2022-08-18T07:00:56;98339.34;;;36.19;30.29
51239;BME280;38154;47.548;18.828;2022-08-18T07:08:41;98342.31;;;37.37;28.46
51239;BME280;38154;47.548;18.828;2022-08-18T07:13:41;98345.97;;;37.75;28.04
51239;BME280;38154;47.548;18.828;2022-08-18T07:18:53;98328.38;;;38.01;27.74
51239;BME280;38154;47.548;18.828;2022-08-18T07:21:31;98337.69;;;37.14;28.80
51239;BME280;38154;47.548;18.828;2022-08-18T07:24:20;98340.44;;;37.37;28.60
51239;BME280;38154;47.548;18.828;2022-08-18T07:27:12;98347.69;;;37.45;28.44
51239;BME280;38154;47.548;18.828;2022-08-18T07:29:57;98362.09;;;38.68;26.83
51239;BME280;38154;47.548;18.828;2022-08-18T07:32:28;98345.34;;;37.65;27.88
51239;BME280;38154;47.548;18.828;2022-08-18T07:34:58;98350.03;;;37.94;27.73
51239;BME280;38154;47.548;18.828;2022-08-18T07:37:39;98362.34;;;39.18;26.18
51239;BME280;38154;47.548;18.828;2022-08-18T07:43:01;98358.72;;;37.98;27.88
51239;BME280;38154;47.548;18.828;2022-08-18T07:45:39;98369.00;;;39.30;26.39
51239;BME280;38154;47.548;18.828;2022-08-18T07:48:23;98378.59;;;39.26;25.56
51239;BME280;38154;47.548;18.828;2022-08-18T07:53:39;98388.53;;;40.13;24.83
51239;BME280;38154;47.548;18.828;2022-08-18T07:56:33;98399.22;;;40.93;24.13
51239;BME280;38154;47.548;18.828;2022-08-18T07:59:20;98409.69;;;40.89;24.20
51239;BME280;38154;47.548;18.828;2022-08-18T08:04:32;98407.78;;;41.25;23.67
51239;BME280;38154;47.548;18.828;2022-08-18T08:07:04;98417.38;;;41.14;23.65
51239;BME280;38154;47.548;18.828;2022-08-18T08:10:11;98409.06;;;42.37;22.05
51239;BME280;38154;47.548;18.828;2022-08-18T08:15:18;98419.75;;;41.79;22.65
51239;BME280;38154;47.548;18.828;2022-08-18T08:18:02;98419.91;;;41.64;22.61
51239;BME280;38154;47.548;18.828;2022-08-18T08:20:38;98413.25;;;42.20;22.40
51239;BME280;38154;47.548;18.828;2022-08-18T08:32:10;98423.19;;;42.14;21.43
51239;BME280;38154;47.548;18.828;2022-08-18T08:34:49;98413.44;;;41.98;21.47
51239;BME280;38154;47.548;18.828;2022-08-18T08:37:20;98413.34;;;41.45;21.92
51239;BME280;38154;47.548;18.828;2022-08-18T08:39:56;98409.66;;;41.99;20.95
51239;BME280;38154;47.548;18.828;2022-08-18T08:42:40;98408.78;;;42.79;19.75
51239;BME280;38154;47.548;18.828;2022-08-18T08:45:13;98412.00;;;43.28;20.21
51239;BME280;38154;47.548;18.828;2022-08-18T08:50:18;98402.22;;;42.80;19.97
51239;BME280;38154;47.548;18.828;2022-08-18T08:52:55;98391.13;;;42.35;20.22
51239;BME280;38154;47.548;18.828;2022-08-18T08:55:27;98386.19;;;42.84;20.58
51239;BME280;38154;47.548;18.828;2022-08-18T08:57:56;98396.78;;;43.77;19.20
51239;BME280;38154;47.548;18.828;2022-08-18T09:00:28;98392.81;;;43.98;18.84
51239;BME280;38154;47.548;18.828;2022-08-18T09:05:35;98398.91;;;43.68;19.24
51239;BME280;38154;47.548;18.828;2022-08-18T09:08:11;98386.81;;;44.58;18.28
51239;BME280;38154;47.548;18.828;2022-08-18T09:21:59;98381.94;;;45.16;17.72
51239;BME280;38154;47.548;18.828;2022-08-18T09:24:31;98381.12;;;44.53;17.72
51239;BME280;38154;47.548;18.828;2022-08-18T09:40:06;98378.56;;;43.83;17.52
51239;BME280;38154;47.548;18.828;2022-08-18T09:42:57;98365.31;;;43.73;17.77
51239;BME280;38154;47.548;18.828;2022-08-18T09:48:22;98351.28;;;43.17;18.09
51239;BME280;38154;47.548;18.828;2022-08-18T09:50:57;98333.97;;;42.38;18.18
51239;BME280;38154;47.548;18.828;2022-08-18T09:56:12;98333.91;;;43.24;18.35
51239;BME280;38154;47.548;18.828;2022-08-18T09:58:56;98337.06;;;42.75;18.00
51239;BME280;38154;47.548;18.828;2022-08-18T10:06:42;98312.62;;;42.74;18.21
51239;BME280;38154;47.548;18.828;2022-08-18T10:09:29;98314.59;;;43.44;17.97
51239;BME280;38154;47.548;18.828;2022-08-18T10:15:01;98307.03;;;42.94;18.35
51239;BME280;38154;47.548;18.828;2022-08-18T10:17:40;98314.00;;;42.90;18.71
51239;BME280;38154;47.548;18.828;2022-08-18T10:20:53;98308.72;;;41.96;19.57
51239;BME280;38154;47.548;18.828;2022-08-18T10:28:58;98321.50;;;42.69;18.46
51239;BME280;38154;47.548;18.828;2022-08-18T10:31:26;98316.75;;;42.18;18.90
51239;BME280;38154;47.548;18.828;2022-08-18T10:36:48;98312.12;;;43.92;17.30
51239;BME280;38154;47.548;18.828;2022-08-18T10:39:22;98311.25;;;43.67;17.15
51239;BME280;38154;47.548;18.828;2022-08-18T10:41:59;98316.13;;;42.88;17.86
51239;BME280;38154;47.548;18.828;2022-08-18T10:44:27;98313.62;;;42.79;17.65
51239;BME280;38154;47.548;18.828;2022-08-18T10:46:57;98310.38;;;41.37;19.47
51239;BME280;38154;47.548;18.828;2022-08-18T10:49:25;98302.41;;;41.82;18.96
51239;BME280;38154;47.548;18.828;2022-08-18T10:52:01;98293.75;;;41.52;18.37
51239;BME280;38154;47.548;18.828;2022-08-18T10:57:52;98301.34;;;41.50;18.86
51239;BME280;38154;47.548;18.828;2022-08-18T11:00:21;98301.56;;;41.55;18.85
51239;BME280;38154;47.548;18.828;2022-08-18T11:06:06;98302.44;;;40.24;19.79
51239;BME280;38154;47.548;18.828;2022-08-18T11:08:40;98307.81;;;40.80;20.04
51239;BME280;38154;47.548;18.828;2022-08-18T11:11:08;98309.97;;;40.85;19.61
51239;BME280;38154;47.548;18.828;2022-08-18T11:13:53;98301.19;;;40.96;19.38
51239;BME280;38154;47.548;18.828;2022-08-18T11:19:15;98290.00;;;40.85;20.13
51239;BME280;38154;47.548;18.828;2022-08-18T11:21:43;98290.16;;;40.06;20.46
51239;BME280;38154;47.548;18.828;2022-08-18T11:24:20;98279.81;;;40.72;20.28
51239;BME280;38154;47.548;18.828;2022-08-18T11:26:53;98274.25;;;40.17;21.14
51239;BME280;38154;47.548;18.828;2022-08-18T11:34:35;98266.16;;;40.72;20.28
51239;BME280;38154;47.548;18.828;2022-08-18T11:37:08;98271.84;;;40.70;20.35
51239;BME280;38154;47.548;18.828;2022-08-18T11:39:44;98256.03;;;41.27;19.30
51239;BME280;38154;47.548;18.828;2022-08-18T11:42:14;98254.16;;;41.41;18.82
51239;BME280;38154;47.548;18.828;2022-08-18T11:44:41;98247.44;;;41.64;19.15
51239;BME280;38154;47.548;18.828;2022-08-18T11:47:13;98249.75;;;42.14;18.83
51239;BME280;38154;47.548;18.828;2022-08-18T11:49:50;98243.00;;;41.49;19.37
51239;BME280;38154;47.548;18.828;2022-08-18T11:52:23;98256.84;;;42.28;18.57
51239;BME280;38154;47.548;18.828;2022-08-18T11:54:50;98245.47;;;42.24;18.70
51239;BME280;38154;47.548;18.828;2022-08-18T12:03:15;98229.09;;;40.62;20.07
51239;BME280;38154;47.548;18.828;2022-08-18T12:05:46;98232.13;;;40.33;20.32
51239;BME280;38154;47.548;18.828;2022-08-18T12:08:34;98222.72;;;39.72;20.84
51239;BME280;38154;47.548;18.828;2022-08-18T12:11:14;98216.78;;;39.19;21.37
51239;BME280;38154;47.548;18.828;2022-08-18T12:13:46;98204.72;;;38.91;21.82
51239;BME280;38154;47.548;18.828;2022-08-18T12:16:30;98209.06;;;38.49;22.73
51239;BME280;38154;47.548;18.828;2022-08-18T12:18:58;98215.47;;;37.97;22.88
51239;BME280;38154;47.548;18.828;2022-08-18T12:21:24;98201.56;;;37.92;22.83
51239;BME280;38154;47.548;18.828;2022-08-18T12:23:50;98209.37;;;37.57;23.00
51239;BME280;38154;47.548;18.828;2022-08-18T12:26:16;98198.31;;;36.74;23.67
51239;BME280;38154;47.548;18.828;2022-08-18T12:28:42;98191.66;;;36.68;23.98
51239;BME280;38154;47.548;18.828;2022-08-18T12:31:08;98196.13;;;37.16;22.98
51239;BME280;38154;47.548;18.828;2022-08-18T12:33:35;98191.53;;;36.93;22.81
51239;BME280;38154;47.548;18.828;2022-08-18T12:36:02;98187.44;;;36.74;23.65
51239;BME280;38154;47.548;18.828;2022-08-18T12:38:30;98190.62;;;36.46;24.28
51239;BME280;38154;47.548;18.828;2022-08-18T12:41:05;98199.19;;;36.27;24.69
51239;BME280;38154;47.548;18.828;2022-08-18T12:43:37;98206.56;;;36.49;23.56
51239;BME280;38154;47.548;18.828;2022-08-18T12:46:05;98192.84;;;36.43;24.30
51239;BME280;38154;47.548;18.828;2022-08-18T12:48:31;98203.84;;;36.49;24.37
51239;BME280;38154;47.548;18.828;2022-08-18T12:50:57;98208.44;;;36.49;24.76
51239;BME280;38154;47.548;18.828;2022-08-18T12:53:24;98214.44;;;36.36;24.39
51239;BME280;38154;47.548;18.828;2022-08-18T12:55:50;98223.50;;;36.12;24.48
51239;BME280;38154;47.548;18.828;2022-08-18T12:58:16;98223.25;;;36.38;23.95
51239;BME280;38154;47.548;18.828;2022-08-18T13:00:42;98224.69;;;36.57;23.80
51239;BME280;38154;47.548;18.828;2022-08-18T13:03:08;98225.31;;;36.19;24.12
51239;BME280;38154;47.548;18.828;2022-08-18T13:05:34;98222.50;;;36.04;24.60
51239;BME280;38154;47.548;18.828;2022-08-18T13:08:02;98234.84;;;36.15;23.67
51239;BME280;38154;47.548;18.828;2022-08-18T13:10:28;98236.53;;;36.25;25.32
51239;BME280;38154;47.548;18.828;2022-08-18T13:12:54;98227.03;;;36.29;25.25
51239;BME280;38154;47.548;18.828;2022-08-18T13:15:20;98223.81;;;36.17;25.69
51239;BME280;38154;47.548;18.828;2022-08-18T13:17:46;98213.66;;;36.11;25.77
51239;BME280;38154;47.548;18.828;2022-08-18T13:20:14;98224.97;;;36.31;25.88
51239;BME280;38154;47.548;18.828;2022-08-18T13:22:41;98223.25;;;36.38;25.47
51239;BME280;38154;47.548;18.828;2022-08-18T13:25:13;98230.88;;;36.43;24.61
51239;BME280;38154;47.548;18.828;2022-08-18T13:27:39;98220.81;;;36.03;24.97
51239;BME280;38154;47.548;18.828;2022-08-18T13:30:08;98219.72;;;35.73;25.46
51239;BME280;38154;47.548;18.828;2022-08-18T13:32:34;98221.03;;;35.69;25.78
51239;BME280;38154;47.548;18.828;2022-08-18T13:35:00;98214.44;;;35.55;26.14
51239;BME280;38154;47.548;18.828;2022-08-18T13:37:26;98198.84;;;35.41;26.45
51239;BME280;38154;47.548;18.828;2022-08-18T13:39:53;98194.09;;;35.51;26.10
51239;BME280;38154;47.548;18.828;2022-08-18T13:42:19;98206.97;;;35.24;25.96
51239;BME280;38154;47.548;18.828;2022-08-18T13:44:45;98208.47;;;35.02;26.25
51239;BME280;38154;47.548;18.828;2022-08-18T13:47:11;98214.56;;;35.04;26.20
51239;BME280;38154;47.548;18.828;2022-08-18T13:49:37;98217.44;;;34.86;25.73
51239;BME280;38154;47.548;18.828;2022-08-18T13:52:04;98203.38;;;34.99;26.03
51239;BME280;38154;47.548;18.828;2022-08-18T13:54:31;98208.09;;;34.81;25.17
51239;BME280;38154;47.548;18.828;2022-08-18T13:56:59;98212.22;;;34.93;25.20
51239;BME280;38154;47.548;18.828;2022-08-18T13:59:25;98200.16;;;34.96;25.20
51239;BME280;38154;47.548;18.828;2022-08-18T14:02:04;98194.06;;;34.85;25.30
51239;BME280;38154;47.548;18.828;2022-08-18T14:04:32;98208.41;;;34.69;25.17
51239;BME280;38154;47.548;18.828;2022-08-18T14:06:58;98211.78;;;34.71;25.03
51239;BME280;38154;47.548;18.828;2022-08-18T14:09:27;98220.22;;;34.60;24.79
51239;BME280;38154;47.548;18.828;2022-08-18T14:11:53;98228.03;;;34.63;24.02
51239;BME280;38154;47.548;18.828;2022-08-18T14:14:19;98227.16;;;34.54;24.46
51239;BME280;38154;47.548;18.828;2022-08-18T14:16:45;98230.88;;;34.62;24.80
51239;BME280;38154;47.548;18.828;2022-08-18T14:19:12;98231.75;;;34.70;24.20
51239;BME280;38154;47.548;18.828;2022-08-18T14:21:57;98233.94;;;34.67;23.98
51239;BME280;38154;47.548;18.828;2022-08-18T14:24:41;98247.97;;;34.62;24.75
51239;BME280;38154;47.548;18.828;2022-08-18T14:27:30;98241.84;;;34.52;25.42
51239;BME280;38154;47.548;18.828;2022-08-18T14:30:03;98244.72;;;34.50;25.39
51239;BME280;38154;47.548;18.828;2022-08-18T14:32:31;98234.56;;;34.44;25.48
51239;BME280;38154;47.548;18.828;2022-08-18T14:34:58;98231.13;;;34.34;25.49
51239;BME280;38154;47.548;18.828;2022-08-18T14:37:26;98229.00;;;34.54;25.45
51239;BME280;38154;47.548;18.828;2022-08-18T14:39:52;98234.75;;;34.59;25.72
51239;BME280;38154;47.548;18.828;2022-08-18T14:42:18;98226.13;;;34.55;25.74
51239;BME280;38154;47.548;18.828;2022-08-18T14:44:46;98227.63;;;34.50;25.72
51239;BME280;38154;47.548;18.828;2022-08-18T14:47:13;98234.75;;;34.51;25.83
51239;BME280;38154;47.548;18.828;2022-08-18T14:49:39;98227.59;;;34.42;26.17
51239;BME280;38154;47.548;18.828;2022-08-18T14:52:06;98229.00;;;34.46;25.90
51239;BME280;38154;47.548;18.828;2022-08-18T14:54:32;98225.94;;;34.49;26.03
51239;BME280;38154;47.548;18.828;2022-08-18T14:56:59;98220.50;;;34.49;25.90
51239;BME280;38154;47.548;18.828;2022-08-18T14:59:30;98217.13;;;34.47;26.04
51239;BME280;38154;47.548;18.828;2022-08-18T15:01:57;98208.94;;;34.30;26.70
51239;BME280;38154;47.548;18.828;2022-08-18T15:04:24;98219.03;;;34.20;26.78
51239;BME280;38154;47.548;18.828;2022-08-18T15:06:52;98211.59;;;34.14;26.80
51239;BME280;38154;47.548;18.828;2022-08-18T15:09:18;98211.94;;;34.19;27.12
51239;BME280;38154;47.548;18.828;2022-08-18T15:11:44;98206.75;;;34.26;26.68
51239;BME280;38154;47.548;18.828;2022-08-18T15:14:09;98208.38;;;34.18;26.60
51239;BME280;38154;47.548;18.828;2022-08-18T15:16:35;98219.75;;;34.22;26.53
51239;BME280;38154;47.548;18.828;2022-08-18T15:19:02;98220.44;;;34.24;26.41
51239;BME280;38154;47.548;18.828;2022-08-18T15:21:28;98218.59;;;34.25;26.21
51239;BME280;38154;47.548;18.828;2022-08-18T15:24:14;98216.13;;;34.13;26.23
51239;BME280;38154;47.548;18.828;2022-08-18T15:26:59;98215.44;;;34.11;26.39
51239;BME280;38154;47.548;18.828;2022-08-18T15:29:27;98219.50;;;34.07;26.61